sensor_id;sensor_type;location;lat;lon;timestamp;temperature;humidity
18658;DHT22;9458;50.942;5.074;2023-11-21T00:00:23;9.60;99.90
18658;DHT22;9458;50.942;5.074;2023-11-21T00:02:51;9.70;99.90
18658;DHT22;9458;50.942;5.074;2023-11-21T00:05:18;9.70;99.90
18658;DHT22;9458;50.942;5.074;2023-11-21T00:07:45;9.80;99.90
18658;DHT22;9458;50.942;5.074;2023-11-21T00:10:13;9.80;99.90
18658;DHT22;9458;50.942;5.074;2023-11-21T00:43:14;9.90;99.90
18658;DHT22;9458;50.942;5.074;2023-11-21T00:45:41;9.90;99.90
18658;DHT22;9458;50.942;5.074;2023-11-21T00:48:08;9.90;99.90
18658;DHT22;9458;50.942;5.074;2023-11-21T00:50:35;9.90;99.90
18658;DHT22;9458;50.942;5.074;2023-11-21T00:53:02;9.90;99.90
18658;DHT22;9458;50.942;5.074;2023-11-21T00:55:29;9.90;99.90
18658;DHT22;9458;50.942;5.074;2023-11-21T00:57:56;9.90;99.90
18658;DHT22;9458;50.942;5.074;2023-11-21T01:00:25;9.90;99.90
18658;DHT22;9458;50.942;5.074;2023-11-21T01:02:52;9.90;99.90
18658;DHT22;9458;50.942;5.074;2023-11-21T01:05:19;9.90;99.90
18658;DHT22;9458;50.942;5.074;2023-11-21T01:07:46;10.00;99.90
18658;DHT22;9458;50.942;5.074;2023-11-21T01:10:13;10.00;99.90
18658;DHT22;9458;50.942;5.074;2023-11-21T01:12:40;10.00;99.90
18658;DHT22;9458;50.942;5.074;2023-11-21T01:15:07;10.00;99.90
18658;DHT22;9458;50.942;5.074;2023-11-21T01:17:37;10.00;99.90
18658;DHT22;9458;50.942;5.074;2023-11-21T01:20:04;10.00;99.90
18658;DHT22;9458;50.942;5.074;2023-11-21T01:22:36;10.00;99.90
18658;DHT22;9458;50.942;5.074;2023-11-21T01:25:03;10.00;99.90
18658;DHT22;9458;50.942;5.074;2023-11-21T01:27:32;10.00;99.90
18658;DHT22;9458;50.942;5.074;2023-11-21T01:29:59;10.00;99.90
18658;DHT22;9458;50.942;5.074;2023-11-21T01:32:26;10.00;99.90
18658;DHT22;9458;50.942;5.074;2023-11-21T01:34:55;10.00;99.90
18658;DHT22;9458;50.942;5.074;2023-11-21T01:37:22;10.00;99.90
18658;DHT22;9458;50.942;5.074;2023-11-21T01:39:53;10.00;99.90
18658;DHT22;9458;50.942;5.074;2023-11-21T01:42:20;9.90;99.90
18658;DHT22;9458;50.942;5.074;2023-11-21T01:44:47;9.90;99.90
18658;DHT22;9458;50.942;5.074;2023-11-21T01:47:14;9.70;99.90
18658;DHT22;9458;50.942;5.074;2023-11-21T01:49:41;9.60;99.90
18658;DHT22;9458;50.942;5.074;2023-11-21T01:52:11;9.60;99.90
18658;DHT22;9458;50.942;5.074;2023-11-21T01:54:39;9.60;99.90
18658;DHT22;9458;50.942;5.074;2023-11-21T01:57:08;9.60;99.90
18658;DHT22;9458;50.942;5.074;2023-11-21T01:59:35;9.60;99.90
18658;DHT22;9458;50.942;5.074;2023-11-21T02:02:02;9.70;99.90
18658;DHT22;9458;50.942;5.074;2023-11-21T02:04:31;9.70;99.90
18658;DHT22;9458;50.942;5.074;2023-11-21T02:06:58;9.70;99.90
18658;DHT22;9458;50.942;5.074;2023-11-21T02:09:27;9.70;99.90
18658;DHT22;9458;50.942;5.074;2023-11-21T02:11:55;9.70;99.90
18658;DHT22;9458;50.942;5.074;2023-11-21T02:14:24;9.70;99.90
18658;DHT22;9458;50.942;5.074;2023-11-21T02:17:05;9.60;99.90
18658;DHT22;9458;50.942;5.074;2023-11-21T02:19:33;9.60;99.90
18658;DHT22;9458;50.942;5.074;2023-11-21T02:22:00;9.60;99.90
18658;DHT22;9458;50.942;5.074;2023-11-21T02:24:31;9.70;99.90
18658;DHT22;9458;50.942;5.074;2023-11-21T02:26:58;9.70;99.90
18658;DHT22;9458;50.942;5.074;2023-11-21T02:29:25;9.70;99.90
18658;DHT22;9458;50.942;5.074;2023-11-21T02:31:53;9.70;99.90
18658;DHT22;9458;50.942;5.074;2023-11-21T02:34:21;9.70;99.90
18658;DHT22;9458;50.942;5.074;2023-11-21T02:36:53;9.70;99.90
18658;DHT22;9458;50.942;5.074;2023-11-21T02:39:22;9.70;99.90
18658;DHT22;9458;50.942;5.074;2023-11-21T02:41:54;9.70;99.90
18658;DHT22;9458;50.942;5.074;2023-11-21T02:44:20;9.70;99.90
18658;DHT22;9458;50.942;5.074;2023-11-21T02:46:47;9.70;99.90
18658;DHT22;9458;50.942;5.074;2023-11-21T02:49:14;9.60;99.90
18658;DHT22;9458;50.942;5.074;2023-11-21T02:51:41;9.70;99.90
18658;DHT22;9458;50.942;5.074;2023-11-21T02:54:09;9.70;99.90
18658;DHT22;9458;50.942;5.074;2023-11-21T02:56:36;9.70;99.90
18658;DHT22;9458;50.942;5.074;2023-11-21T02:59:07;9.60;99.90
18658;DHT22;9458;50.942;5.074;2023-11-21T03:01:34;9.50;99.90
18658;DHT22;9458;50.942;5.074;2023-11-21T03:04:01;9.50;99.90
18658;DHT22;9458;50.942;5.074;2023-11-21T03:06:28;9.50;99.90
18658;DHT22;9458;50.942;5.074;2023-11-21T03:08:55;9.30;99.90
18658;DHT22;9458;50.942;5.074;2023-11-21T03:11:22;9.30;99.90
18658;DHT22;9458;50.942;5.074;2023-11-21T03:13:49;9.30;99.90
18658;DHT22;9458;50.942;5.074;2023-11-21T03:16:18;9.20;99.90
18658;DHT22;9458;50.942;5.074;2023-11-21T03:18:46;9.00;99.90
18658;DHT22;9458;50.942;5.074;2023-11-21T03:21:12;8.90;99.90
18658;DHT22;9458;50.942;5.074;2023-11-21T03:23:39;8.70;99.90
18658;DHT22;9458;50.942;5.074;2023-11-21T03:26:06;8.90;99.90
18658;DHT22;9458;50.942;5.074;2023-11-21T03:28:38;9.00;99.90
18658;DHT22;9458;50.942;5.074;2023-11-21T03:31:05;9.10;99.90
18658;DHT22;9458;50.942;5.074;2023-11-21T03:33:36;9.20;99.90
18658;DHT22;9458;50.942;5.074;2023-11-21T03:36:02;9.20;99.90
18658;DHT22;9458;50.942;5.074;2023-11-21T03:38:30;9.20;99.90
18658;DHT22;9458;50.942;5.074;2023-11-21T03:40:57;9.20;99.90
18658;DHT22;9458;50.942;5.074;2023-11-21T03:43:24;9.20;99.90
18658;DHT22;9458;50.942;5.074;2023-11-21T03:45:51;9.20;99.90
18658;DHT22;9458;50.942;5.074;2023-11-21T03:48:18;9.20;99.90
18658;DHT22;9458;50.942;5.074;2023-11-21T03:50:47;9.20;99.90
18658;DHT22;9458;50.942;5.074;2023-11-21T03:53:14;9.20;99.90
18658;DHT22;9458;50.942;5.074;2023-11-21T03:55:41;9.20;99.90
18658;DHT22;9458;50.942;5.074;2023-11-21T03:58:08;9.20;99.90
18658;DHT22;9458;50.942;5.074;2023-11-21T04:00:35;9.10;99.90
18658;DHT22;9458;50.942;5.074;2023-11-21T04:03:01;9.20;99.90
18658;DHT22;9458;50.942;5.074;2023-11-21T04:05:28;9.20;99.90
18658;DHT22;9458;50.942;5.074;2023-11-21T04:07:57;9.20;99.90
18658;DHT22;9458;50.942;5.074;2023-11-21T04:10:23;9.20;99.90
18658;DHT22;9458;50.942;5.074;2023-11-21T04:12:50;9.20;99.90
18658;DHT22;9458;50.942;5.074;2023-11-21T04:15:17;9.30;99.90
18658;DHT22;9458;50.942;5.074;2023-11-21T04:17:44;9.20;99.90
18658;DHT22;9458;50.942;5.074;2023-11-21T04:20:11;9.20;99.90
18658;DHT22;9458;50.942;5.074;2023-11-21T04:22:38;9.20;99.90
18658;DHT22;9458;50.942;5.074;2023-11-21T04:25:10;9.20;99.90
18658;DHT22;9458;50.942;5.074;2023-11-21T04:27:38;9.20;99.90
18658;DHT22;9458;50.942;5.074;2023-11-21T04:30:05;9.20;99.90
18658;DHT22;9458;50.942;5.074;2023-11-21T04:32:32;9.20;99.90
18658;DHT22;9458;50.942;5.074;2023-11-21T04:34:59;9.20;99.90
18658;DHT22;9458;50.942;5.074;2023-11-21T04:37:26;9.20;99.90
18658;DHT22;9458;50.942;5.074;2023-11-21T04:39:53;9.10;99.90
18658;DHT22;9458;50.942;5.074;2023-11-21T04:42:22;9.00;99.90
18658;DHT22;9458;50.942;5.074;2023-11-21T04:44:49;9.00;99.90
18658;DHT22;9458;50.942;5.074;2023-11-21T04:47:17;8.90;99.90
18658;DHT22;9458;50.942;5.074;2023-11-21T04:49:45;9.00;99.90
18658;DHT22;9458;50.942;5.074;2023-11-21T04:52:13;9.10;99.90
18658;DHT22;9458;50.942;5.074;2023-11-21T04:54:40;9.10;99.90
18658;DHT22;9458;50.942;5.074;2023-11-21T04:57:08;9.20;99.90
18658;DHT22;9458;50.942;5.074;2023-11-21T04:59:36;9.20;99.90
18658;DHT22;9458;50.942;5.074;2023-11-21T05:02:03;9.30;99.90
18658;DHT22;9458;50.942;5.074;2023-11-21T05:04:30;9.30;99.90
18658;DHT22;9458;50.942;5.074;2023-11-21T05:06:57;9.30;99.90
18658;DHT22;9458;50.942;5.074;2023-11-21T05:09:27;9.20;99.90
18658;DHT22;9458;50.942;5.074;2023-11-21T05:11:57;9.20;99.90
18658;DHT22;9458;50.942;5.074;2023-11-21T05:14:25;9.20;99.90
18658;DHT22;9458;50.942;5.074;2023-11-21T05:16:54;9.30;99.90
18658;DHT22;9458;50.942;5.074;2023-11-21T05:19:21;9.30;99.90
18658;DHT22;9458;50.942;5.074;2023-11-21T05:21:48;9.30;99.90
18658;DHT22;9458;50.942;5.074;2023-11-21T05:24:15;9.40;99.90
18658;DHT22;9458;50.942;5.074;2023-11-21T05:26:41;9.30;99.90
18658;DHT22;9458;50.942;5.074;2023-11-21T05:29:08;9.40;99.90
18658;DHT22;9458;50.942;5.074;2023-11-21T05:31:36;9.40;99.90
18658;DHT22;9458;50.942;5.074;2023-11-21T05:34:04;9.40;99.90
18658;DHT22;9458;50.942;5.074;2023-11-21T05:36:31;9.40;99.90
18658;DHT22;9458;50.942;5.074;2023-11-21T05:38:59;9.30;99.90
18658;DHT22;9458;50.942;5.074;2023-11-21T05:41:26;9.30;99.90
18658;DHT22;9458;50.942;5.074;2023-11-21T05:43:53;9.30;99.90
18658;DHT22;9458;50.942;5.074;2023-11-21T05:46:21;9.30;99.90
18658;DHT22;9458;50.942;5.074;2023-11-21T05:48:48;9.20;99.90
18658;DHT22;9458;50.942;5.074;2023-11-21T05:51:16;9.30;99.90
18658;DHT22;9458;50.942;5.074;2023-11-21T05:53:43;9.30;99.90
18658;DHT22;9458;50.942;5.074;2023-11-21T05:56:10;9.40;99.90
18658;DHT22;9458;50.942;5.074;2023-11-21T05:58:39;9.40;99.90
18658;DHT22;9458;50.942;5.074;2023-11-21T06:01:06;9.30;99.90
18658;DHT22;9458;50.942;5.074;2023-11-21T06:03:34;9.20;99.90
18658;DHT22;9458;50.942;5.074;2023-11-21T06:06:01;9.10;99.90
18658;DHT22;9458;50.942;5.074;2023-11-21T06:08:31;9.10;99.90
18658;DHT22;9458;50.942;5.074;2023-11-21T06:10:57;9.20;99.90
18658;DHT22;9458;50.942;5.074;2023-11-21T06:13:24;9.30;99.90
18658;DHT22;9458;50.942;5.074;2023-11-21T06:15:51;9.40;99.90
18658;DHT22;9458;50.942;5.074;2023-11-21T06:18:18;9.40;99.90
18658;DHT22;9458;50.942;5.074;2023-11-21T06:20:46;9.40;99.90
18658;DHT22;9458;50.942;5.074;2023-11-21T06:23:13;9.40;99.90
18658;DHT22;9458;50.942;5.074;2023-11-21T06:25:43;9.40;99.90
18658;DHT22;9458;50.942;5.074;2023-11-21T06:28:10;9.40;99.90
18658;DHT22;9458;50.942;5.074;2023-11-21T06:30:37;9.40;99.90
18658;DHT22;9458;50.942;5.074;2023-11-21T06:33:04;9.40;99.90
18658;DHT22;9458;50.942;5.074;2023-11-21T06:35:31;9.40;99.90
18658;DHT22;9458;50.942;5.074;2023-11-21T06:38:00;9.40;99.90
18658;DHT22;9458;50.942;5.074;2023-11-21T06:40:28;9.40;99.90
18658;DHT22;9458;50.942;5.074;2023-11-21T06:42:57;9.40;99.90
18658;DHT22;9458;50.942;5.074;2023-11-21T06:45:24;9.40;99.90
18658;DHT22;9458;50.942;5.074;2023-11-21T06:47:51;9.40;99.90
18658;DHT22;9458;50.942;5.074;2023-11-21T06:50:18;9.40;99.90
18658;DHT22;9458;50.942;5.074;2023-11-21T06:52:45;9.40;99.90
18658;DHT22;9458;50.942;5.074;2023-11-21T06:55:12;9.40;99.90
18658;DHT22;9458;50.942;5.074;2023-11-21T06:57:39;9.50;99.90
18658;DHT22;9458;50.942;5.074;2023-11-21T07:00:09;9.50;99.90
18658;DHT22;9458;50.942;5.074;2023-11-21T07:02:36;9.50;99.90
18658;DHT22;9458;50.942;5.074;2023-11-21T07:05:04;9.60;99.90
18658;DHT22;9458;50.942;5.074;2023-11-21T07:07:31;9.50;99.90
18658;DHT22;9458;50.942;5.074;2023-11-21T07:10:00;9.50;99.90
18658;DHT22;9458;50.942;5.074;2023-11-21T07:12:28;9.50;99.90
18658;DHT22;9458;50.942;5.074;2023-11-21T07:14:56;9.40;99.90
18658;DHT22;9458;50.942;5.074;2023-11-21T07:17:25;9.50;99.90
18658;DHT22;9458;50.942;5.074;2023-11-21T07:19:52;9.40;99.90
18658;DHT22;9458;50.942;5.074;2023-11-21T07:22:20;9.40;99.90
18658;DHT22;9458;50.942;5.074;2023-11-21T07:24:48;9.30;99.90
18658;DHT22;9458;50.942;5.074;2023-11-21T07:27:14;9.20;99.90
18658;DHT22;9458;50.942;5.074;2023-11-21T07:29:41;9.20;99.90
18658;DHT22;9458;50.942;5.074;2023-11-21T07:32:08;9.30;99.90
18658;DHT22;9458;50.942;5.074;2023-11-21T07:34:37;9.40;99.90
18658;DHT22;9458;50.942;5.074;2023-11-21T07:37:04;9.50;99.90
18658;DHT22;9458;50.942;5.074;2023-11-21T07:39:31;9.50;99.90
18658;DHT22;9458;50.942;5.074;2023-11-21T07:41:58;9.60;99.90
18658;DHT22;9458;50.942;5.074;2023-11-21T07:44:25;9.70;99.90
18658;DHT22;9458;50.942;5.074;2023-11-21T07:46:52;9.60;99.90
18658;DHT22;9458;50.942;5.074;2023-11-21T07:49:22;9.60;99.90
18658;DHT22;9458;50.942;5.074;2023-11-21T07:51:51;9.70;99.90
18658;DHT22;9458;50.942;5.074;2023-11-21T07:54:18;9.70;99.90
18658;DHT22;9458;50.942;5.074;2023-11-21T07:56:44;9.70;99.90
18658;DHT22;9458;50.942;5.074;2023-11-21T07:59:11;9.70;99.90
18658;DHT22;9458;50.942;5.074;2023-11-21T08:01:39;9.80;99.90
18658;DHT22;9458;50.942;5.074;2023-11-21T08:04:08;9.80;99.90
18658;DHT22;9458;50.942;5.074;2023-11-21T08:06:35;9.80;99.90
18658;DHT22;9458;50.942;5.074;2023-11-21T08:09:04;9.80;99.90
18658;DHT22;9458;50.942;5.074;2023-11-21T08:11:33;9.90;99.90
18658;DHT22;9458;50.942;5.074;2023-11-21T08:14:00;9.80;99.90
18658;DHT22;9458;50.942;5.074;2023-11-21T08:16:27;9.80;99.90
18658;DHT22;9458;50.942;5.074;2023-11-21T08:18:54;9.90;99.90
18658;DHT22;9458;50.942;5.074;2023-11-21T08:21:21;9.90;99.90
18658;DHT22;9458;50.942;5.074;2023-11-21T08:23:49;9.90;99.90
18658;DHT22;9458;50.942;5.074;2023-11-21T08:26:21;9.90;99.90
18658;DHT22;9458;50.942;5.074;2023-11-21T08:28:48;9.90;99.90
18658;DHT22;9458;50.942;5.074;2023-11-21T08:31:15;9.90;99.90
18658;DHT22;9458;50.942;5.074;2023-11-21T08:33:43;10.00;99.90
18658;DHT22;9458;50.942;5.074;2023-11-21T08:36:10;10.10;99.90
18658;DHT22;9458;50.942;5.074;2023-11-21T08:38:37;10.00;99.90
18658;DHT22;9458;50.942;5.074;2023-11-21T08:41:05;10.00;99.90
18658;DHT22;9458;50.942;5.074;2023-11-21T08:43:35;9.90;99.90
18658;DHT22;9458;50.942;5.074;2023-11-21T08:46:05;10.00;99.90
18658;DHT22;9458;50.942;5.074;2023-11-21T08:48:32;10.10;99.90
18658;DHT22;9458;50.942;5.074;2023-11-21T08:50:58;10.10;99.90
18658;DHT22;9458;50.942;5.074;2023-11-21T08:53:25;10.20;99.90
18658;DHT22;9458;50.942;5.074;2023-11-21T08:55:52;10.20;99.90
18658;DHT22;9458;50.942;5.074;2023-11-21T08:58:19;10.20;99.90
18658;DHT22;9458;50.942;5.074;2023-11-21T09:00:48;10.20;99.90
18658;DHT22;9458;50.942;5.074;2023-11-21T09:03:15;10.30;99.90
18658;DHT22;9458;50.942;5.074;2023-11-21T09:05:42;10.30;99.90
18658;DHT22;9458;50.942;5.074;2023-11-21T09:08:10;10.20;99.90
18658;DHT22;9458;50.942;5.074;2023-11-21T09:10:37;10.20;99.90
18658;DHT22;9458;50.942;5.074;2023-11-21T09:13:04;10.20;99.90
18658;DHT22;9458;50.942;5.074;2023-11-21T09:15:35;10.20;99.90
18658;DHT22;9458;50.942;5.074;2023-11-21T09:18:04;10.30;99.90
18658;DHT22;9458;50.942;5.074;2023-11-21T09:20:31;10.30;99.90
18658;DHT22;9458;50.942;5.074;2023-11-21T09:22:58;10.30;99.90
18658;DHT22;9458;50.942;5.074;2023-11-21T09:25:25;10.40;99.90
18658;DHT22;9458;50.942;5.074;2023-11-21T09:27:54;10.30;99.90
18658;DHT22;9458;50.942;5.074;2023-11-21T09:30:21;10.40;99.90
18658;DHT22;9458;50.942;5.074;2023-11-21T09:32:50;10.50;99.90
18658;DHT22;9458;50.942;5.074;2023-11-21T09:35:18;10.50;99.90
18658;DHT22;9458;50.942;5.074;2023-11-21T09:37:45;10.60;99.90
18658;DHT22;9458;50.942;5.074;2023-11-21T09:40:13;10.60;99.90
18658;DHT22;9458;50.942;5.074;2023-11-21T09:42:43;10.60;99.90
18658;DHT22;9458;50.942;5.074;2023-11-21T09:45:15;10.60;99.90
18658;DHT22;9458;50.942;5.074;2023-11-21T09:47:45;10.60;99.90
18658;DHT22;9458;50.942;5.074;2023-11-21T09:50:13;10.60;99.90
18658;DHT22;9458;50.942;5.074;2023-11-21T09:52:46;10.60;99.90
18658;DHT22;9458;50.942;5.074;2023-11-21T09:55:16;10.50;99.90
18658;DHT22;9458;50.942;5.074;2023-11-21T09:57:44;10.50;99.90
18658;DHT22;9458;50.942;5.074;2023-11-21T10:00:12;10.40;99.90
18658;DHT22;9458;50.942;5.074;2023-11-21T10:02:42;10.50;99.90
18658;DHT22;9458;50.942;5.074;2023-11-21T10:05:10;10.60;99.90
18658;DHT22;9458;50.942;5.074;2023-11-21T10:07:37;10.60;99.90
18658;DHT22;9458;50.942;5.074;2023-11-21T10:10:08;10.70;99.90
18658;DHT22;9458;50.942;5.074;2023-11-21T10:12:35;10.70;99.90
18658;DHT22;9458;50.942;5.074;2023-11-21T10:15:04;10.70;99.90
18658;DHT22;9458;50.942;5.074;2023-11-21T10:17:34;10.80;99.90
18658;DHT22;9458;50.942;5.074;2023-11-21T10:20:08;10.80;99.90
18658;DHT22;9458;50.942;5.074;2023-11-21T10:22:37;10.90;99.90
18658;DHT22;9458;50.942;5.074;2023-11-21T10:25:11;10.90;99.90
18658;DHT22;9458;50.942;5.074;2023-11-21T10:27:40;11.00;99.90
18658;DHT22;9458;50.942;5.074;2023-11-21T10:30:07;11.00;99.90
18658;DHT22;9458;50.942;5.074;2023-11-21T10:32:37;11.10;99.90
18658;DHT22;9458;50.942;5.074;2023-11-21T10:35:06;11.20;99.90
18658;DHT22;9458;50.942;5.074;2023-11-21T10:37:35;11.20;99.90
18658;DHT22;9458;50.942;5.074;2023-11-21T10:40:05;11.20;99.90
18658;DHT22;9458;50.942;5.074;2023-11-21T10:42:34;11.20;99.90
18658;DHT22;9458;50.942;5.074;2023-11-21T10:45:01;11.20;99.90
18658;DHT22;9458;50.942;5.074;2023-11-21T10:47:30;11.10;99.90
18658;DHT22;9458;50.942;5.074;2023-11-21T10:49:57;11.10;99.90
18658;DHT22;9458;50.942;5.074;2023-11-21T10:52:27;11.20;99.90
18658;DHT22;9458;50.942;5.074;2023-11-21T10:54:54;11.20;99.90
18658;DHT22;9458;50.942;5.074;2023-11-21T10:57:24;11.20;99.90
18658;DHT22;9458;50.942;5.074;2023-11-21T10:59:53;11.10;99.90
18658;DHT22;9458;50.942;5.074;2023-11-21T11:02:22;11.20;99.90
18658;DHT22;9458;50.942;5.074;2023-11-21T11:04:50;11.20;99.90
18658;DHT22;9458;50.942;5.074;2023-11-21T11:07:18;11.30;99.90
18658;DHT22;9458;50.942;5.074;2023-11-21T11:09:48;11.30;99.90
18658;DHT22;9458;50.942;5.074;2023-11-21T11:12:15;11.50;99.90
18658;DHT22;9458;50.942;5.074;2023-11-21T11:14:43;11.50;99.90
18658;DHT22;9458;50.942;5.074;2023-11-21T11:17:12;11.50;99.90
18658;DHT22;9458;50.942;5.074;2023-11-21T11:19:40;11.50;99.90
18658;DHT22;9458;50.942;5.074;2023-11-21T11:22:09;11.40;99.90
18658;DHT22;9458;50.942;5.074;2023-11-21T11:24:54;11.40;99.90
18658;DHT22;9458;50.942;5.074;2023-11-21T11:27:28;11.40;99.90
18658;DHT22;9458;50.942;5.074;2023-11-21T11:30:00;11.50;99.90
18658;DHT22;9458;50.942;5.074;2023-11-21T11:32:33;11.60;99.90
18658;DHT22;9458;50.942;5.074;2023-11-21T11:35:04;11.50;99.90
18658;DHT22;9458;50.942;5.074;2023-11-21T11:37:31;11.40;99.90
18658;DHT22;9458;50.942;5.074;2023-11-21T11:40:00;11.40;99.90
18658;DHT22;9458;50.942;5.074;2023-11-21T11:42:28;11.50;99.90
18658;DHT22;9458;50.942;5.074;2023-11-21T11:44:56;11.40;99.90
18658;DHT22;9458;50.942;5.074;2023-11-21T11:47:24;11.40;99.90
18658;DHT22;9458;50.942;5.074;2023-11-21T11:49:58;11.40;99.90
18658;DHT22;9458;50.942;5.074;2023-11-21T11:52:35;11.40;99.90
18658;DHT22;9458;50.942;5.074;2023-11-21T11:55:04;11.40;99.90
18658;DHT22;9458;50.942;5.074;2023-11-21T11:57:31;11.40;99.90
18658;DHT22;9458;50.942;5.074;2023-11-21T12:00:12;11.30;99.90
18658;DHT22;9458;50.942;5.074;2023-11-21T12:02:42;11.30;99.90
18658;DHT22;9458;50.942;5.074;2023-11-21T12:05:11;11.20;99.90
18658;DHT22;9458;50.942;5.074;2023-11-21T12:07:46;11.30;99.90
18658;DHT22;9458;50.942;5.074;2023-11-21T12:10:14;11.20;99.90
18658;DHT22;9458;50.942;5.074;2023-11-21T12:12:43;11.30;99.90
18658;DHT22;9458;50.942;5.074;2023-11-21T12:15:11;11.30;99.90
18658;DHT22;9458;50.942;5.074;2023-11-21T12:17:38;11.30;99.90
18658;DHT22;9458;50.942;5.074;2023-11-21T12:20:06;11.30;99.90
18658;DHT22;9458;50.942;5.074;2023-11-21T12:22:43;11.30;99.90
18658;DHT22;9458;50.942;5.074;2023-11-21T12:25:10;11.30;99.90
18658;DHT22;9458;50.942;5.074;2023-11-21T12:27:42;11.40;99.90
18658;DHT22;9458;50.942;5.074;2023-11-21T12:30:11;11.50;99.90
18658;DHT22;9458;50.942;5.074;2023-11-21T12:32:39;11.50;99.90
18658;DHT22;9458;50.942;5.074;2023-11-21T12:35:07;11.50;99.90
18658;DHT22;9458;50.942;5.074;2023-11-21T12:37:35;11.60;99.90
18658;DHT22;9458;50.942;5.074;2023-11-21T12:40:05;11.60;99.90
18658;DHT22;9458;50.942;5.074;2023-11-21T12:42:32;11.70;99.90
18658;DHT22;9458;50.942;5.074;2023-11-21T12:45:07;11.80;99.90
18658;DHT22;9458;50.942;5.074;2023-11-21T12:47:35;11.80;99.90
18658;DHT22;9458;50.942;5.074;2023-11-21T12:50:02;11.90;99.90
18658;DHT22;9458;50.942;5.074;2023-11-21T12:52:31;11.80;99.90
18658;DHT22;9458;50.942;5.074;2023-11-21T12:55:00;11.80;99.90
18658;DHT22;9458;50.942;5.074;2023-11-21T12:57:29;11.70;99.90
18658;DHT22;9458;50.942;5.074;2023-11-21T12:59:56;11.70;99.90
18658;DHT22;9458;50.942;5.074;2023-11-21T13:02:25;11.90;99.90
18658;DHT22;9458;50.942;5.074;2023-11-21T13:04:52;11.90;99.90
18658;DHT22;9458;50.942;5.074;2023-11-21T13:07:22;12.00;99.90
18658;DHT22;9458;50.942;5.074;2023-11-21T13:09:51;12.10;99.90
18658;DHT22;9458;50.942;5.074;2023-11-21T13:12:23;12.10;99.90
18658;DHT22;9458;50.942;5.074;2023-11-21T13:14:52;12.00;99.90
18658;DHT22;9458;50.942;5.074;2023-11-21T13:17:19;12.10;99.90
18658;DHT22;9458;50.942;5.074;2023-11-21T13:19:49;12.10;99.90
18658;DHT22;9458;50.942;5.074;2023-11-21T13:22:16;12.00;99.90
18658;DHT22;9458;50.942;5.074;2023-11-21T13:24:43;12.00;99.90
18658;DHT22;9458;50.942;5.074;2023-11-21T13:27:11;12.10;99.90
18658;DHT22;9458;50.942;5.074;2023-11-21T13:29:40;12.10;99.90
18658;DHT22;9458;50.942;5.074;2023-11-21T13:32:09;12.10;99.90
18658;DHT22;9458;50.942;5.074;2023-11-21T13:34:37;12.10;99.90
18658;DHT22;9458;50.942;5.074;2023-11-21T13:37:04;12.10;99.90
18658;DHT22;9458;50.942;5.074;2023-11-21T13:39:33;12.10;99.90
18658;DHT22;9458;50.942;5.074;2023-11-21T13:42:01;12.10;99.90
18658;DHT22;9458;50.942;5.074;2023-11-21T13:44:28;12.10;99.90
18658;DHT22;9458;50.942;5.074;2023-11-21T13:47:03;12.00;99.90
18658;DHT22;9458;50.942;5.074;2023-11-21T13:49:32;12.00;99.90
18658;DHT22;9458;50.942;5.074;2023-11-21T13:52:06;12.00;99.90
18658;DHT22;9458;50.942;5.074;2023-11-21T13:54:32;12.10;99.90
18658;DHT22;9458;50.942;5.074;2023-11-21T13:56:59;12.00;99.90
18658;DHT22;9458;50.942;5.074;2023-11-21T13:59:28;12.00;99.90
18658;DHT22;9458;50.942;5.074;2023-11-21T14:01:57;12.00;99.90
18658;DHT22;9458;50.942;5.074;2023-11-21T14:04:25;12.10;99.90
18658;DHT22;9458;50.942;5.074;2023-11-21T14:07:13;12.10;99.90
18658;DHT22;9458;50.942;5.074;2023-11-21T14:09:58;12.20;99.90
18658;DHT22;9458;50.942;5.074;2023-11-21T14:12:25;12.20;99.90
18658;DHT22;9458;50.942;5.074;2023-11-21T14:14:54;12.10;99.90
18658;DHT22;9458;50.942;5.074;2023-11-21T14:17:21;12.00;99.90
18658;DHT22;9458;50.942;5.074;2023-11-21T14:19:49;12.00;99.90
18658;DHT22;9458;50.942;5.074;2023-11-21T14:22:18;12.00;99.90
18658;DHT22;9458;50.942;5.074;2023-11-21T14:24:46;12.00;99.90
18658;DHT22;9458;50.942;5.074;2023-11-21T14:27:13;11.90;99.90
18658;DHT22;9458;50.942;5.074;2023-11-21T14:29:40;11.90;99.90
18658;DHT22;9458;50.942;5.074;2023-11-21T14:32:09;11.90;99.90
18658;DHT22;9458;50.942;5.074;2023-11-21T14:34:37;11.90;99.90
18658;DHT22;9458;50.942;5.074;2023-11-21T14:37:05;11.90;99.90
18658;DHT22;9458;50.942;5.074;2023-11-21T14:39:34;11.90;99.90
18658;DHT22;9458;50.942;5.074;2023-11-21T14:42:06;11.90;99.90
18658;DHT22;9458;50.942;5.074;2023-11-21T14:44:33;11.90;99.90
18658;DHT22;9458;50.942;5.074;2023-11-21T14:47:04;11.80;99.90
18658;DHT22;9458;50.942;5.074;2023-11-21T14:49:40;11.90;99.90
18658;DHT22;9458;50.942;5.074;2023-11-21T14:52:18;11.90;99.90
18658;DHT22;9458;50.942;5.074;2023-11-21T14:54:59;11.80;99.90
18658;DHT22;9458;50.942;5.074;2023-11-21T14:57:46;11.80;99.90
18658;DHT22;9458;50.942;5.074;2023-11-21T15:00:15;11.80;99.90
18658;DHT22;9458;50.942;5.074;2023-11-21T15:03:01;11.70;99.90
18658;DHT22;9458;50.942;5.074;2023-11-21T15:05:28;11.80;99.90
18658;DHT22;9458;50.942;5.074;2023-11-21T15:07:55;11.80;99.90
18658;DHT22;9458;50.942;5.074;2023-11-21T15:10:35;11.80;99.90
18658;DHT22;9458;50.942;5.074;2023-11-21T15:13:05;11.80;99.90
18658;DHT22;9458;50.942;5.074;2023-11-21T15:15:36;11.90;99.90
18658;DHT22;9458;50.942;5.074;2023-11-21T15:18:04;11.90;99.90
18658;DHT22;9458;50.942;5.074;2023-11-21T15:20:31;11.80;99.90
18658;DHT22;9458;50.942;5.074;2023-11-21T15:22:59;11.70;99.90
18658;DHT22;9458;50.942;5.074;2023-11-21T15:25:26;11.60;99.90
18658;DHT22;9458;50.942;5.074;2023-11-21T15:27:54;11.50;99.90
18658;DHT22;9458;50.942;5.074;2023-11-21T15:30:21;11.50;99.90
18658;DHT22;9458;50.942;5.074;2023-11-21T15:32:50;11.50;99.90
18658;DHT22;9458;50.942;5.074;2023-11-21T15:35:18;11.50;99.90
18658;DHT22;9458;50.942;5.074;2023-11-21T15:37:45;11.50;99.90
18658;DHT22;9458;50.942;5.074;2023-11-21T15:40:12;11.50;99.90
18658;DHT22;9458;50.942;5.074;2023-11-21T15:42:41;11.40;99.90
18658;DHT22;9458;50.942;5.074;2023-11-21T15:45:11;11.50;99.90
18658;DHT22;9458;50.942;5.074;2023-11-21T15:47:37;11.60;99.90
18658;DHT22;9458;50.942;5.074;2023-11-21T15:50:06;11.50;99.90
18658;DHT22;9458;50.942;5.074;2023-11-21T15:52:35;11.60;99.90
18658;DHT22;9458;50.942;5.074;2023-11-21T15:55:03;11.60;99.90
18658;DHT22;9458;50.942;5.074;2023-11-21T15:57:30;11.60;99.90
18658;DHT22;9458;50.942;5.074;2023-11-21T15:59:57;11.60;99.90
18658;DHT22;9458;50.942;5.074;2023-11-21T16:02:26;11.50;99.90
18658;DHT22;9458;50.942;5.074;2023-11-21T16:04:53;11.40;99.90
18658;DHT22;9458;50.942;5.074;2023-11-21T16:07:20;11.40;99.90
18658;DHT22;9458;50.942;5.074;2023-11-21T16:09:46;11.40;99.90
18658;DHT22;9458;50.942;5.074;2023-11-21T16:12:13;11.30;99.90
18658;DHT22;9458;50.942;5.074;2023-11-21T16:14:40;11.30;99.90
18658;DHT22;9458;50.942;5.074;2023-11-21T16:17:13;11.40;99.90
18658;DHT22;9458;50.942;5.074;2023-11-21T16:19:44;11.50;99.90
18658;DHT22;9458;50.942;5.074;2023-11-21T16:22:12;11.40;99.90
18658;DHT22;9458;50.942;5.074;2023-11-21T16:24:39;11.40;99.90
18658;DHT22;9458;50.942;5.074;2023-11-21T16:27:06;11.40;99.90
18658;DHT22;9458;50.942;5.074;2023-11-21T16:29:35;11.40;99.90